Mimbres, New Mexico
Current Conditions -  °F | °C
As of 12:15 PM on Monday 20 Oct 2014 (Local Time) from KSVC Reporting Station
Broken Clouds Broken Clouds  
Wind Chill: 63°   Ceiling: 4300
Heat Index: 63°   Visibility: 10mi
Dew Point: 48°   Wind: 13mph
Humidity: 59%   Direction: 140°SE
Pressure: 30.18"   Gusts: NA
Location:  32.86°N, 107.98°W
Report Text: KSVC 201815Z AUTO 14011KT 10SM SCT037 BKN043 17/09 A3018 RMK AO2
Loading
Personal Weather Stations






























Interactive Weather Map
Tropical Storm Tracking
New forecast layout! Learn more

10-Day Weather Forecast

Advertisements
Track Severe Weather on mobile